createdAt,value
2023-03-12T00:01:14.849Z,99.90
2023-03-12T00:04:06.506Z,99.90
2023-03-12T00:06:52.626Z,99.90
2023-03-12T00:09:39.404Z,99.90
2023-03-12T00:12:24.707Z,99.90
2023-03-12T00:15:11.217Z,99.90
2023-03-12T00:17:56.749Z,99.90
2023-03-12T00:20:42.263Z,99.90
2023-03-12T00:23:27.822Z,99.90
2023-03-12T00:26:14.391Z,99.90
2023-03-12T00:28:59.969Z,99.90
2023-03-12T00:31:46.430Z,99.90
2023-03-12T00:34:31.836Z,99.90
2023-03-12T00:37:17.497Z,99.90
2023-03-12T00:40:05.824Z,99.90
2023-03-12T00:42:51.045Z,99.90
2023-03-12T00:45:36.905Z,99.90
2023-03-12T00:48:22.397Z,99.90
2023-03-12T00:51:07.794Z,99.90
2023-03-12T00:53:53.613Z,99.90
2023-03-12T00:56:38.754Z,99.90
2023-03-12T00:59:24.257Z,99.90
2023-03-12T01:02:09.740Z,99.90
2023-03-12T01:04:55.453Z,99.90
2023-03-12T01:07:41.225Z,99.90
2023-03-12T01:10:26.487Z,99.90
2023-03-12T01:13:12.187Z,99.90
2023-03-12T01:15:58.118Z,99.90
2023-03-12T01:18:43.973Z,99.90
2023-03-12T01:21:30.547Z,99.90
2023-03-12T01:24:15.720Z,99.90
2023-03-12T01:27:01.353Z,99.90
2023-03-12T01:29:46.946Z,99.90
2023-03-12T01:32:33.240Z,99.90
2023-03-12T01:35:18.923Z,99.90
2023-03-12T01:38:04.276Z,99.90
2023-03-12T01:40:49.864Z,99.90
2023-03-12T01:43:38.449Z,99.90
2023-03-12T01:46:32.554Z,99.90
2023-03-12T01:49:27.183Z,99.90
2023-03-12T01:52:22.272Z,99.90
2023-03-12T01:55:13.450Z,99.90
2023-03-12T01:57:59.222Z,99.90
2023-03-12T02:00:45.640Z,99.90
2023-03-12T02:03:33.027Z,99.90
2023-03-12T02:06:25.346Z,99.90
2023-03-12T02:09:12.661Z,99.90
2023-03-12T02:11:58.198Z,99.90
2023-03-12T02:14:44.263Z,99.90
2023-03-12T02:17:31.259Z,99.90
2023-03-12T02:20:28.411Z,99.90
2023-03-12T02:23:28.916Z,99.90
2023-03-12T02:26:16.158Z,99.90
2023-03-12T02:29:01.841Z,99.90
2023-03-12T02:31:52.834Z,99.90
2023-03-12T02:34:38.420Z,99.90
2023-03-12T02:37:23.957Z,99.90
2023-03-12T02:40:24.902Z,99.90
2023-03-12T02:43:10.575Z,99.90
2023-03-12T02:45:56.171Z,99.90
2023-03-12T02:48:41.938Z,99.90
2023-03-12T02:51:27.553Z,99.90
2023-03-12T02:54:14.955Z,99.90
2023-03-12T02:57:00.320Z,99.90
2023-03-12T02:59:45.990Z,99.90
2023-03-12T03:02:31.524Z,99.90
2023-03-12T03:05:17.092Z,99.90
2023-03-12T03:08:02.949Z,99.90
2023-03-12T03:10:51.722Z,99.90
2023-03-12T03:13:36.870Z,99.90
2023-03-12T03:16:23.648Z,99.90
2023-03-12T03:19:09.264Z,99.90
2023-03-12T03:21:54.836Z,99.90
2023-03-12T03:24:40.532Z,99.90
2023-03-12T03:27:26.059Z,99.90
2023-03-12T03:30:12.107Z,99.90
2023-03-12T03:32:57.565Z,99.90
2023-03-12T03:35:43.116Z,99.90
2023-03-12T03:38:32.875Z,99.90
2023-03-12T03:41:19.848Z,99.90
2023-03-12T03:44:05.461Z,99.90
2023-03-12T03:46:50.826Z,99.90
2023-03-12T03:49:36.353Z,99.90
2023-03-12T03:52:21.636Z,99.90
2023-03-12T03:55:07.372Z,99.90
2023-03-12T03:57:52.620Z,99.90
2023-03-12T04:00:38.195Z,99.90
2023-03-12T04:03:23.723Z,99.90
2023-03-12T04:06:09.347Z,99.90
2023-03-12T04:08:54.650Z,99.90
2023-03-12T04:11:40.813Z,99.90
2023-03-12T04:14:26.456Z,99.90
2023-03-12T04:17:12.150Z,99.90
2023-03-12T04:19:57.800Z,99.90
2023-03-12T04:22:43.456Z,99.90
2023-03-12T04:25:28.921Z,99.90
2023-03-12T04:28:14.559Z,99.90
2023-03-12T04:31:02.742Z,99.90
2023-03-12T04:33:48.074Z,99.90
2023-03-12T04:36:33.665Z,99.90
2023-03-12T04:39:20.525Z,99.90
2023-03-12T04:42:06.848Z,99.90
2023-03-12T04:44:52.768Z,99.90
2023-03-12T04:47:37.976Z,99.90
2023-03-12T04:50:23.596Z,99.90
2023-03-12T04:53:09.239Z,99.90
2023-03-12T04:55:54.876Z,99.90
2023-03-12T04:58:40.526Z,99.90
2023-03-12T05:01:33.016Z,99.90
2023-03-12T05:04:18.506Z,99.90
2023-03-12T05:07:04.279Z,99.90
2023-03-12T05:09:49.710Z,99.90
2023-03-12T05:12:35.326Z,99.90
2023-03-12T05:15:20.974Z,99.90
2023-03-12T05:18:06.360Z,99.90
2023-03-12T05:21:03.960Z,99.90
2023-03-12T05:23:49.350Z,99.90
2023-03-12T05:26:35.228Z,99.90
2023-03-12T05:29:20.694Z,99.90
2023-03-12T05:32:07.589Z,99.90
2023-03-12T05:34:53.172Z,99.90
2023-03-12T05:37:38.484Z,99.90
2023-03-12T05:40:23.943Z,99.90
2023-03-12T05:43:09.464Z,99.90
2023-03-12T05:45:59.784Z,99.90
2023-03-12T05:48:45.343Z,99.90
2023-03-12T05:51:31.056Z,99.90
2023-03-12T05:54:17.475Z,99.90
2023-03-12T05:57:03.452Z,99.90
2023-03-12T05:59:49.112Z,99.90
2023-03-12T06:02:34.493Z,99.90
2023-03-12T06:05:20.169Z,99.90
2023-03-12T06:08:06.793Z,99.90
2023-03-12T06:10:54.856Z,99.90
2023-03-12T06:13:40.585Z,99.90
2023-03-12T06:16:27.745Z,99.90
2023-03-12T06:19:15.999Z,99.90
2023-03-12T06:22:01.233Z,99.90
2023-03-12T06:24:49.636Z,99.90
2023-03-12T06:27:34.982Z,99.90
2023-03-12T06:30:20.870Z,99.90
2023-03-12T06:33:08.945Z,99.90
2023-03-12T06:35:56.040Z,99.90
2023-03-12T06:38:41.631Z,99.90
2023-03-12T06:41:27.442Z,99.90
2023-03-12T06:44:13.086Z,99.90
2023-03-12T06:46:58.660Z,99.90
2023-03-12T06:49:44.188Z,99.90
2023-03-12T06:52:29.495Z,99.90
2023-03-12T06:55:15.126Z,99.90
2023-03-12T06:58:00.334Z,99.90
2023-03-12T07:00:45.844Z,99.90
2023-03-12T07:03:31.659Z,99.90
2023-03-12T07:06:19.653Z,99.90
2023-03-12T07:09:05.120Z,99.90
2023-03-12T07:11:50.298Z,99.90
2023-03-12T07:14:35.737Z,99.90
2023-03-12T07:17:22.250Z,99.90
2023-03-12T07:20:08.548Z,99.90
2023-03-12T07:22:53.888Z,99.90
2023-03-12T07:25:41.387Z,99.90
2023-03-12T07:28:26.792Z,99.90
2023-03-12T07:31:12.279Z,99.90
2023-03-12T07:33:57.625Z,99.90
2023-03-12T07:36:43.321Z,99.90
2023-03-12T07:39:29.220Z,99.90
2023-03-12T07:42:14.451Z,99.90
2023-03-12T07:45:00.190Z,99.90
2023-03-12T07:47:46.002Z,99.90
2023-03-12T07:50:31.789Z,99.90
2023-03-12T07:53:17.697Z,99.90
2023-03-12T07:56:03.420Z,99.90
2023-03-12T07:58:48.791Z,99.90
2023-03-12T08:01:34.518Z,99.90
2023-03-12T08:04:20.205Z,99.90
2023-03-12T08:07:08.011Z,99.90
2023-03-12T08:09:54.831Z,99.90
2023-03-12T08:12:40.465Z,99.90
2023-03-12T08:15:25.915Z,99.90
2023-03-12T08:18:11.469Z,99.90
2023-03-12T08:20:56.960Z,99.90
2023-03-12T08:23:42.749Z,99.90
2023-03-12T08:26:28.008Z,99.90
2023-03-12T08:29:13.539Z,99.90
2023-03-12T08:32:04.975Z,99.90
2023-03-12T08:34:51.266Z,99.90
2023-03-12T08:37:36.914Z,99.90
2023-03-12T08:40:22.176Z,99.90
2023-03-12T08:43:08.031Z,99.90
2023-03-12T08:45:58.664Z,99.90
2023-03-12T08:48:43.831Z,99.90
2023-03-12T08:51:29.463Z,99.90
2023-03-12T08:54:15.244Z,99.90
2023-03-12T08:57:00.699Z,99.90
2023-03-12T08:59:46.162Z,99.90
2023-03-12T09:02:31.806Z,99.90
2023-03-12T09:05:17.174Z,99.90
2023-03-12T09:08:02.683Z,99.90
2023-03-12T09:10:50.166Z,99.90
2023-03-12T09:13:54.591Z,99.90
2023-03-12T09:16:41.298Z,99.90
2023-03-12T09:19:26.762Z,99.90
2023-03-12T09:22:12.576Z,99.90
2023-03-12T09:24:57.880Z,99.90
2023-03-12T09:27:45.981Z,99.90
2023-03-12T09:30:32.161Z,99.90
2023-03-12T09:33:18.162Z,99.90
2023-03-12T09:36:03.966Z,99.90
2023-03-12T09:38:49.476Z,99.90
2023-03-12T09:41:39.021Z,99.90
2023-03-12T09:44:35.721Z,99.90
2023-03-12T09:47:29.540Z,99.90
2023-03-12T09:50:33.442Z,99.90
2023-03-12T09:53:38.625Z,99.90
2023-03-12T09:56:26.163Z,99.90
2023-03-12T09:59:12.959Z,99.90
2023-03-12T10:02:02.265Z,99.90
2023-03-12T10:04:59.734Z,99.90
2023-03-12T10:08:07.509Z,99.90
2023-03-12T10:11:19.669Z,99.90
2023-03-12T10:14:27.742Z,99.90
2023-03-12T10:17:47.943Z,99.90
2023-03-12T10:20:51.867Z,99.90
2023-03-12T10:23:40.429Z,99.90
2023-03-12T10:26:34.225Z,99.90
2023-03-12T10:29:23.331Z,99.90
2023-03-12T10:32:17.321Z,99.90
2023-03-12T10:35:16.739Z,99.90
2023-03-12T10:38:04.354Z,99.90
2023-03-12T10:40:49.812Z,99.90
2023-03-12T10:43:36.129Z,99.90
2023-03-12T10:46:37.607Z,99.90
2023-03-12T10:49:22.656Z,99.90
2023-03-12T10:52:22.800Z,99.90
2023-03-12T10:55:29.750Z,99.90
2023-03-12T10:58:25.572Z,99.90
2023-03-12T11:01:26.153Z,99.90
2023-03-12T11:04:30.048Z,99.90
2023-03-12T11:07:28.773Z,99.90
2023-03-12T11:10:18.558Z,99.90
2023-03-12T11:13:20.133Z,99.90
2023-03-12T11:16:17.909Z,99.90
2023-03-12T11:19:05.332Z,99.90
2023-03-12T11:22:11.787Z,99.90
2023-03-12T11:25:00.518Z,99.90
2023-03-12T11:27:51.127Z,99.90
2023-03-12T11:30:40.092Z,99.90
2023-03-12T11:33:25.868Z,99.90
2023-03-12T11:36:39.272Z,99.90
2023-03-12T11:39:58.829Z,99.90
2023-03-12T11:42:59.038Z,99.90
2023-03-12T11:45:47.086Z,99.90
2023-03-12T11:48:50.238Z,99.90
2023-03-12T11:51:44.997Z,99.90
2023-03-12T11:54:30.241Z,99.90
2023-03-12T11:57:34.030Z,99.90
2023-03-12T12:00:25.173Z,99.90
2023-03-12T12:03:31.996Z,99.90
2023-03-12T12:06:42.594Z,99.90
2023-03-12T12:10:00.300Z,99.90
2023-03-12T12:13:06.523Z,99.90
2023-03-12T12:16:29.069Z,99.90
2023-03-12T12:19:44.614Z,99.90
2023-03-12T12:22:36.026Z,99.90
2023-03-12T12:25:38.188Z,99.90
2023-03-12T12:28:23.805Z,99.90
2023-03-12T12:31:37.294Z,99.90
2023-03-12T12:34:58.500Z,99.90
2023-03-12T12:38:02.639Z,99.90
2023-03-12T12:41:16.042Z,99.90
2023-03-12T12:44:09.189Z,99.90
2023-03-12T12:47:02.666Z,99.90
2023-03-12T12:49:52.004Z,99.90
2023-03-12T12:52:37.760Z,99.90
2023-03-12T12:55:36.559Z,99.90
2023-03-12T12:58:45.623Z,99.90
2023-03-12T13:01:34.859Z,99.90
2023-03-12T13:04:33.662Z,99.90
2023-03-12T13:07:22.187Z,99.90
2023-03-12T13:10:28.420Z,99.90
2023-03-12T13:13:20.791Z,99.90
2023-03-12T13:16:36.333Z,99.90
2023-03-12T13:19:26.102Z,99.90
2023-03-12T13:22:31.076Z,99.90
2023-03-12T13:25:37.995Z,99.90
2023-03-12T13:28:26.647Z,99.90
2023-03-12T13:31:15.339Z,99.90
2023-03-12T13:34:12.856Z,99.90
2023-03-12T13:37:01.303Z,99.90
2023-03-12T13:39:46.887Z,99.90
2023-03-12T13:42:39.462Z,99.90
2023-03-12T13:45:28.867Z,99.90
2023-03-12T13:48:18.815Z,99.90
2023-03-12T13:51:43.374Z,99.90
2023-03-12T13:54:33.136Z,92.10
2023-03-12T13:57:43.937Z,99.90
2023-03-12T14:00:41.495Z,88.60
2023-03-12T14:03:34.037Z,93.60
2023-03-12T14:06:23.037Z,92.40
2023-03-12T14:09:26.692Z,88.50
2023-03-12T14:12:27.440Z,71.90
2023-03-12T14:15:24.980Z,75.20
2023-03-12T14:18:23.384Z,74.20
2023-03-12T14:21:15.478Z,74.40
2023-03-12T14:24:02.347Z,77.60
2023-03-12T14:26:48.536Z,65.40
2023-03-12T14:29:42.025Z,62.40
2023-03-12T14:32:32.607Z,60.80
2023-03-12T14:35:21.792Z,58.20
2023-03-12T14:38:15.726Z,54.90
2023-03-12T14:41:18.684Z,52.60
2023-03-12T14:44:12.947Z,48.60
2023-03-12T14:47:01.201Z,48.70
2023-03-12T14:49:47.341Z,50.00
2023-03-12T14:52:34.290Z,48.00
2023-03-12T14:55:26.386Z,49.00
2023-03-12T14:58:18.900Z,47.50
2023-03-12T15:01:07.178Z,47.20
2023-03-12T15:04:23.419Z,44.70
2023-03-12T15:07:12.757Z,42.90
2023-03-12T15:09:58.372Z,43.70
2023-03-12T15:12:45.956Z,44.40
2023-03-12T15:15:41.496Z,43.00
2023-03-12T15:18:29.412Z,41.90
2023-03-12T15:21:14.862Z,39.00
2023-03-12T15:24:00.748Z,42.60
2023-03-12T15:26:46.656Z,41.80
2023-03-12T15:29:31.933Z,41.10
2023-03-12T15:32:24.818Z,39.30
2023-03-12T15:35:14.196Z,42.80
2023-03-12T15:38:02.873Z,42.00
2023-03-12T15:40:50.529Z,41.10
2023-03-12T15:43:37.723Z,42.50
2023-03-12T15:46:24.894Z,44.00
2023-03-12T15:49:22.162Z,40.90
2023-03-12T15:52:19.752Z,42.60
2023-03-12T15:55:13.900Z,43.60
2023-03-12T15:58:03.143Z,42.30
2023-03-12T16:00:49.262Z,44.90
2023-03-12T16:03:35.118Z,43.20
2023-03-12T16:06:25.333Z,43.40
2023-03-12T16:09:17.152Z,44.70
2023-03-12T16:12:03.050Z,45.00
2023-03-12T16:14:49.258Z,46.00
2023-03-12T16:17:34.965Z,46.50
2023-03-12T16:20:20.452Z,47.40
2023-03-12T16:23:05.778Z,48.40
2023-03-12T16:25:54.443Z,48.50
2023-03-12T16:28:40.117Z,48.60
2023-03-12T16:31:25.888Z,49.00
2023-03-12T16:34:12.219Z,48.10
2023-03-12T16:36:58.048Z,48.10
2023-03-12T16:39:46.396Z,47.30
2023-03-12T16:42:34.181Z,47.50
2023-03-12T16:45:19.573Z,47.10
2023-03-12T16:48:06.808Z,47.50
2023-03-12T16:50:55.893Z,47.10
2023-03-12T16:53:42.470Z,48.10
2023-03-12T16:56:28.182Z,49.40
2023-03-12T16:59:26.735Z,48.20
2023-03-12T17:02:17.965Z,48.40
2023-03-12T17:05:03.224Z,48.80
2023-03-12T17:07:48.542Z,49.20
2023-03-12T17:10:34.073Z,49.50
2023-03-12T17:13:23.538Z,50.50
2023-03-12T17:16:11.696Z,51.30
2023-03-12T17:18:57.197Z,51.50
2023-03-12T17:21:43.441Z,51.50
2023-03-12T17:24:28.907Z,52.30
2023-03-12T17:27:15.532Z,52.60
2023-03-12T17:30:01.251Z,52.80
2023-03-12T17:32:46.742Z,54.60
2023-03-12T17:35:33.143Z,55.00
2023-03-12T17:38:18.795Z,55.90
2023-03-12T17:41:09.437Z,56.00
2023-03-12T17:43:59.804Z,55.70
2023-03-12T17:46:58.477Z,55.70
2023-03-12T17:49:44.223Z,56.50
2023-03-12T17:52:29.474Z,56.70
2023-03-12T17:55:14.711Z,57.30
2023-03-12T17:58:00.212Z,57.50
2023-03-12T18:00:45.589Z,58.20
2023-03-12T18:03:31.170Z,58.90
2023-03-12T18:06:19.646Z,58.50
2023-03-12T18:09:05.167Z,60.00
2023-03-12T18:11:50.541Z,61.30
2023-03-12T18:14:36.189Z,61.50
2023-03-12T18:17:21.777Z,61.70
2023-03-12T18:20:09.843Z,61.90
2023-03-12T18:22:55.015Z,62.60
2023-03-12T18:25:41.137Z,62.20
2023-03-12T18:28:27.438Z,63.20
2023-03-12T18:31:13.214Z,62.80
2023-03-12T18:33:58.846Z,62.80
2023-03-12T18:36:44.314Z,62.70
2023-03-12T18:39:29.986Z,63.10
2023-03-12T18:42:15.602Z,63.00
2023-03-12T18:45:01.414Z,63.50
2023-03-12T18:47:50.300Z,63.60
2023-03-12T18:50:36.313Z,63.90
2023-03-12T18:53:21.847Z,63.50
2023-03-12T18:56:07.454Z,63.10
2023-03-12T18:58:52.677Z,63.50
2023-03-12T19:01:38.288Z,63.50
2023-03-12T19:04:24.742Z,63.00
2023-03-12T19:07:13.458Z,63.10
2023-03-12T19:09:59.249Z,62.50
2023-03-12T19:12:53.909Z,63.70
2023-03-12T19:15:39.875Z,63.70
2023-03-12T19:18:25.773Z,63.60
2023-03-12T19:21:11.461Z,62.90
2023-03-12T19:23:57.034Z,63.20
2023-03-12T19:26:42.507Z,63.00
2023-03-12T19:29:28.238Z,62.90
2023-03-12T19:32:13.477Z,62.10
2023-03-12T19:34:58.923Z,63.30
2023-03-12T19:37:44.542Z,62.90
2023-03-12T19:40:29.850Z,63.00
2023-03-12T19:43:15.035Z,63.00
2023-03-12T19:46:00.803Z,63.10
2023-03-12T19:48:46.255Z,63.50
2023-03-12T19:51:31.644Z,63.20
2023-03-12T19:54:17.244Z,63.10
2023-03-12T19:57:03.017Z,64.20
2023-03-12T19:59:48.526Z,63.50
2023-03-12T20:02:34.245Z,63.30
2023-03-12T20:05:19.877Z,63.10
2023-03-12T20:08:05.660Z,64.00
2023-03-12T20:10:50.940Z,64.30
2023-03-12T20:13:39.932Z,64.90
2023-03-12T20:16:25.880Z,64.20
2023-03-12T20:19:11.089Z,64.70
2023-03-12T20:21:57.280Z,64.30
2023-03-12T20:24:42.455Z,65.70
2023-03-12T20:27:28.249Z,66.70
2023-03-12T20:30:14.700Z,67.30
2023-03-12T20:33:00.740Z,68.50
2023-03-12T20:35:46.901Z,68.20
2023-03-12T20:38:33.743Z,70.20
2023-03-12T20:41:19.155Z,69.90
2023-03-12T20:44:04.724Z,70.10
2023-03-12T20:46:50.254Z,70.20
2023-03-12T20:49:35.840Z,71.40
2023-03-12T20:52:21.373Z,72.20
2023-03-12T20:55:07.185Z,71.90
2023-03-12T20:57:52.804Z,72.60
2023-03-12T21:00:38.394Z,72.10
2023-03-12T21:03:25.608Z,71.90
2023-03-12T21:06:10.774Z,72.10
2023-03-12T21:08:57.491Z,72.00
2023-03-12T21:11:42.621Z,72.00
2023-03-12T21:14:28.406Z,72.90
2023-03-12T21:17:14.741Z,72.90
2023-03-12T21:20:00.451Z,73.10
2023-03-12T21:22:46.910Z,72.90
2023-03-12T21:25:36.666Z,72.70
2023-03-12T21:28:22.143Z,72.90
2023-03-12T21:31:11.037Z,73.20
2023-03-12T21:33:58.114Z,73.70
2023-03-12T21:36:43.297Z,74.10
2023-03-12T21:39:28.868Z,75.40
2023-03-12T21:42:14.339Z,75.10
2023-03-12T21:44:59.901Z,76.50
2023-03-12T21:47:45.251Z,77.20
2023-03-12T21:50:30.904Z,77.30
2023-03-12T21:53:23.491Z,77.90
2023-03-12T21:56:10.073Z,77.40
2023-03-12T21:58:57.143Z,77.40
2023-03-12T22:01:42.477Z,77.70
2023-03-12T22:04:28.794Z,76.50
2023-03-12T22:07:14.364Z,76.10
2023-03-12T22:09:59.851Z,76.30
2023-03-12T22:12:45.582Z,74.70
2023-03-12T22:15:31.385Z,74.40
2023-03-12T22:18:16.637Z,73.80
2023-03-12T22:21:05.169Z,73.40
2023-03-12T22:23:52.476Z,72.90
2023-03-12T22:26:37.754Z,72.00
2023-03-12T22:29:23.401Z,72.40
2023-03-12T22:32:09.054Z,71.70
2023-03-12T22:34:54.669Z,71.30
2023-03-12T22:37:40.103Z,71.10
2023-03-12T22:40:26.525Z,71.40
2023-03-12T22:43:11.812Z,71.30
2023-03-12T22:45:57.219Z,70.60
2023-03-12T22:48:44.152Z,70.60
2023-03-12T22:51:31.494Z,71.30
2023-03-12T22:54:16.917Z,70.70
2023-03-12T22:57:02.561Z,70.70
2023-03-12T22:59:48.218Z,71.20
2023-03-12T23:02:33.472Z,71.40
2023-03-12T23:05:19.175Z,71.90
2023-03-12T23:08:04.852Z,71.80
2023-03-12T23:11:02.570Z,72.80
2023-03-12T23:13:49.768Z,73.10
2023-03-12T23:16:35.149Z,73.70
2023-03-12T23:19:20.717Z,74.10
2023-03-12T23:22:06.898Z,73.00
2023-03-12T23:24:53.287Z,72.70
2023-03-12T23:27:38.411Z,72.30
2023-03-12T23:30:24.057Z,73.00
2023-03-12T23:33:09.820Z,73.00
2023-03-12T23:35:57.309Z,73.70
2023-03-12T23:38:43.918Z,73.00
2023-03-12T23:41:29.620Z,73.80
2023-03-12T23:44:14.862Z,73.80
2023-03-12T23:47:00.562Z,74.70
2023-03-12T23:49:45.758Z,76.00
2023-03-12T23:52:31.094Z,76.00
2023-03-12T23:55:17.476Z,76.30
2023-03-12T23:58:02.955Z,76.00
